sensor_id;sensor_type;location;lat;lon;timestamp;pressure;altitude;pressure_sealevel;temperature;humidity
20983;BME280;10650;51.528;6.748;2023-02-26T00:01:28;101537.63;;;1.99;69.93
20983;BME280;10650;51.528;6.748;2023-02-26T00:03:58;101533.00;;;1.94;69.89
20983;BME280;10650;51.528;6.748;2023-02-26T00:06:30;101530.22;;;1.90;70.64
20983;BME280;10650;51.528;6.748;2023-02-26T00:08:58;101534.94;;;1.98;70.30
20983;BME280;10650;51.528;6.748;2023-02-26T00:11:26;101538.50;;;2.00;70.09
20983;BME280;10650;51.528;6.748;2023-02-26T00:13:54;101529.94;;;2.05;70.22
20983;BME280;10650;51.528;6.748;2023-02-26T00:16:26;101531.75;;;2.06;70.16
20983;BME280;10650;51.528;6.748;2023-02-26T00:18:56;101526.47;;;2.06;69.63
20983;BME280;10650;51.528;6.748;2023-02-26T00:21:26;101531.78;;;2.08;69.49
20983;BME280;10650;51.528;6.748;2023-02-26T00:23:56;101546.59;;;2.04;69.47
20983;BME280;10650;51.528;6.748;2023-02-26T00:26:25;101551.13;;;2.08;69.51
20983;BME280;10650;51.528;6.748;2023-02-26T00:28:54;101551.97;;;2.07;69.39
20983;BME280;10650;51.528;6.748;2023-02-26T00:31:23;101550.31;;;2.10;69.26
20983;BME280;10650;51.528;6.748;2023-02-26T00:33:52;101557.44;;;2.12;69.17
20983;BME280;10650;51.528;6.748;2023-02-26T00:36:23;101568.03;;;2.14;69.23
20983;BME280;10650;51.528;6.748;2023-02-26T00:39:02;101572.59;;;2.18;69.10
20983;BME280;10650;51.528;6.748;2023-02-26T00:41:32;101572.22;;;2.08;68.97
20983;BME280;10650;51.528;6.748;2023-02-26T00:44:02;101575.56;;;2.04;69.06
20983;BME280;10650;51.528;6.748;2023-02-26T00:46:36;101578.16;;;2.03;69.28
20983;BME280;10650;51.528;6.748;2023-02-26T00:49:12;101582.78;;;2.08;69.06
20983;BME280;10650;51.528;6.748;2023-02-26T00:51:47;101582.72;;;2.07;69.50
20983;BME280;10650;51.528;6.748;2023-02-26T00:54:18;101592.16;;;2.02;69.27
20983;BME280;10650;51.528;6.748;2023-02-26T00:56:47;101591.94;;;1.96;69.42
20983;BME280;10650;51.528;6.748;2023-02-26T00:59:16;101584.13;;;1.99;69.42
20983;BME280;10650;51.528;6.748;2023-02-26T01:01:44;101590.38;;;2.01;69.11
20983;BME280;10650;51.528;6.748;2023-02-26T01:04:14;101587.03;;;2.05;69.07
20983;BME280;10650;51.528;6.748;2023-02-26T01:06:43;101585.69;;;2.16;68.93
20983;BME280;10650;51.528;6.748;2023-02-26T01:09:20;101590.13;;;2.17;69.14
20983;BME280;10650;51.528;6.748;2023-02-26T01:11:49;101594.16;;;2.07;69.38
20983;BME280;10650;51.528;6.748;2023-02-26T01:14:18;101589.53;;;2.02;69.08
20983;BME280;10650;51.528;6.748;2023-02-26T01:16:51;101587.63;;;1.98;69.41
20983;BME280;10650;51.528;6.748;2023-02-26T01:19:28;101592.75;;;1.95;70.15
20983;BME280;10650;51.528;6.748;2023-02-26T01:22:02;101591.75;;;1.91;69.81
20983;BME280;10650;51.528;6.748;2023-02-26T01:24:35;101596.03;;;1.89;70.34
20983;BME280;10650;51.528;6.748;2023-02-26T01:27:07;101597.50;;;1.81;70.58
20983;BME280;10650;51.528;6.748;2023-02-26T01:29:35;101608.28;;;1.87;70.96
20983;BME280;10650;51.528;6.748;2023-02-26T01:32:08;101600.25;;;1.84;70.77
20983;BME280;10650;51.528;6.748;2023-02-26T01:34:44;101609.88;;;1.83;70.83
20983;BME280;10650;51.528;6.748;2023-02-26T01:37:21;101609.03;;;1.84;71.24
20983;BME280;10650;51.528;6.748;2023-02-26T01:40:02;101618.56;;;1.81;71.47
20983;BME280;10650;51.528;6.748;2023-02-26T01:42:42;101622.69;;;1.74;71.12
20983;BME280;10650;51.528;6.748;2023-02-26T01:45:12;101616.31;;;1.69;71.31
20983;BME280;10650;51.528;6.748;2023-02-26T01:47:48;101618.00;;;1.67;71.64
20983;BME280;10650;51.528;6.748;2023-02-26T01:50:20;101625.19;;;1.50;72.06
20983;BME280;10650;51.528;6.748;2023-02-26T01:55:52;101620.13;;;1.54;72.04
20983;BME280;10650;51.528;6.748;2023-02-26T01:58:23;101626.94;;;1.49;72.05
20983;BME280;10650;51.528;6.748;2023-02-26T02:00:52;101627.69;;;1.47;71.81
20983;BME280;10650;51.528;6.748;2023-02-26T02:03:21;101632.84;;;1.44;71.73
20983;BME280;10650;51.528;6.748;2023-02-26T02:05:53;101633.78;;;1.46;71.12
20983;BME280;10650;51.528;6.748;2023-02-26T02:08:22;101636.44;;;1.46;70.97
20983;BME280;10650;51.528;6.748;2023-02-26T02:10:52;101637.41;;;1.48;70.46
20983;BME280;10650;51.528;6.748;2023-02-26T02:13:29;101644.31;;;1.46;70.37
20983;BME280;10650;51.528;6.748;2023-02-26T02:16:11;101645.25;;;1.46;70.96
20983;BME280;10650;51.528;6.748;2023-02-26T02:18:51;101649.72;;;1.49;70.39
20983;BME280;10650;51.528;6.748;2023-02-26T02:21:43;101659.38;;;1.48;70.21
20983;BME280;10650;51.528;6.748;2023-02-26T02:24:17;101659.25;;;1.45;70.41
20983;BME280;10650;51.528;6.748;2023-02-26T02:26:57;101662.69;;;1.44;70.60
20983;BME280;10650;51.528;6.748;2023-02-26T02:29:45;101674.22;;;1.46;70.07
20983;BME280;10650;51.528;6.748;2023-02-26T02:32:20;101668.94;;;1.46;70.20
20983;BME280;10650;51.528;6.748;2023-02-26T02:34:53;101671.44;;;1.43;70.02
20983;BME280;10650;51.528;6.748;2023-02-26T02:37:24;101676.63;;;1.42;70.33
20983;BME280;10650;51.528;6.748;2023-02-26T02:39:58;101672.97;;;1.38;70.34
20983;BME280;10650;51.528;6.748;2023-02-26T02:42:31;101677.31;;;1.37;70.80
20983;BME280;10650;51.528;6.748;2023-02-26T02:45:05;101678.13;;;1.35;70.93
20983;BME280;10650;51.528;6.748;2023-02-26T02:47:38;101684.06;;;1.31;70.97
20983;BME280;10650;51.528;6.748;2023-02-26T02:50:12;101688.34;;;1.29;71.26
20983;BME280;10650;51.528;6.748;2023-02-26T02:52:47;101690.94;;;1.27;71.85
20983;BME280;10650;51.528;6.748;2023-02-26T02:55:19;101698.75;;;1.26;71.93
20983;BME280;10650;51.528;6.748;2023-02-26T02:57:51;101693.56;;;1.27;71.83
20983;BME280;10650;51.528;6.748;2023-02-26T03:00:21;101696.88;;;1.23;71.71
20983;BME280;10650;51.528;6.748;2023-02-26T03:02:56;101694.13;;;1.20;72.27
20983;BME280;10650;51.528;6.748;2023-02-26T03:05:26;101699.81;;;1.10;72.52
20983;BME280;10650;51.528;6.748;2023-02-26T03:07:56;101706.88;;;1.11;72.60
20983;BME280;10650;51.528;6.748;2023-02-26T03:10:24;101702.50;;;1.11;72.44
20983;BME280;10650;51.528;6.748;2023-02-26T03:12:52;101696.41;;;1.12;72.37
20983;BME280;10650;51.528;6.748;2023-02-26T03:15:30;101707.84;;;1.13;72.64
20983;BME280;10650;51.528;6.748;2023-02-26T03:18:06;101702.44;;;1.10;73.08
20983;BME280;10650;51.528;6.748;2023-02-26T03:20:46;101706.88;;;1.11;72.68
20983;BME280;10650;51.528;6.748;2023-02-26T03:23:24;101714.66;;;1.08;72.79
20983;BME280;10650;51.528;6.748;2023-02-26T03:25:57;101719.63;;;1.01;72.65
20983;BME280;10650;51.528;6.748;2023-02-26T03:28:30;101722.19;;;1.00;73.09
20983;BME280;10650;51.528;6.748;2023-02-26T03:31:02;101726.03;;;0.89;73.30
20983;BME280;10650;51.528;6.748;2023-02-26T03:33:43;101732.91;;;0.85;73.54
20983;BME280;10650;51.528;6.748;2023-02-26T03:36:18;101732.53;;;0.77;74.00
20983;BME280;10650;51.528;6.748;2023-02-26T03:38:51;101739.31;;;0.72;74.07
20983;BME280;10650;51.528;6.748;2023-02-26T03:41:24;101741.88;;;0.71;74.25
20983;BME280;10650;51.528;6.748;2023-02-26T03:43:57;101746.59;;;0.78;74.39
20983;BME280;10650;51.528;6.748;2023-02-26T03:46:32;101748.03;;;0.71;73.93
20983;BME280;10650;51.528;6.748;2023-02-26T03:49:05;101749.03;;;0.73;73.59
20983;BME280;10650;51.528;6.748;2023-02-26T03:51:35;101758.50;;;0.69;73.30
20983;BME280;10650;51.528;6.748;2023-02-26T03:54:08;101758.41;;;0.68;73.67
20983;BME280;10650;51.528;6.748;2023-02-26T03:56:41;101752.88;;;0.62;73.58
20983;BME280;10650;51.528;6.748;2023-02-26T03:59:10;101758.06;;;0.60;73.51
20983;BME280;10650;51.528;6.748;2023-02-26T04:01:41;101758.88;;;0.59;72.69
20983;BME280;10650;51.528;6.748;2023-02-26T04:04:16;101762.41;;;0.60;72.74
20983;BME280;10650;51.528;6.748;2023-02-26T04:06:46;101770.16;;;0.57;72.80
20983;BME280;10650;51.528;6.748;2023-02-26T04:09:14;101780.81;;;0.60;72.79
20983;BME280;10650;51.528;6.748;2023-02-26T04:11:42;101766.38;;;0.51;73.10
20983;BME280;10650;51.528;6.748;2023-02-26T04:14:11;101768.59;;;0.42;73.15
20983;BME280;10650;51.528;6.748;2023-02-26T04:16:39;101777.50;;;0.46;72.87
20983;BME280;10650;51.528;6.748;2023-02-26T04:19:07;101780.97;;;0.45;73.10
20983;BME280;10650;51.528;6.748;2023-02-26T04:21:37;101774.97;;;0.47;72.51
20983;BME280;10650;51.528;6.748;2023-02-26T04:24:04;101779.25;;;0.45;73.06
20983;BME280;10650;51.528;6.748;2023-02-26T04:26:32;101784.72;;;0.50;72.43
20983;BME280;10650;51.528;6.748;2023-02-26T04:29:00;101796.97;;;0.49;72.41
20983;BME280;10650;51.528;6.748;2023-02-26T04:31:28;101795.75;;;0.43;71.82
20983;BME280;10650;51.528;6.748;2023-02-26T04:33:56;101799.78;;;0.34;71.84
20983;BME280;10650;51.528;6.748;2023-02-26T04:36:23;101797.81;;;0.30;72.07
20983;BME280;10650;51.528;6.748;2023-02-26T04:38:53;101806.06;;;0.38;72.21
20983;BME280;10650;51.528;6.748;2023-02-26T04:41:21;101813.72;;;0.33;71.38
20983;BME280;10650;51.528;6.748;2023-02-26T04:43:49;101814.53;;;0.32;71.63
20983;BME280;10650;51.528;6.748;2023-02-26T04:46:17;101823.66;;;0.39;71.40
20983;BME280;10650;51.528;6.748;2023-02-26T04:48:44;101816.13;;;0.47;71.19
20983;BME280;10650;51.528;6.748;2023-02-26T04:51:13;101822.06;;;0.43;70.48
20983;BME280;10650;51.528;6.748;2023-02-26T04:53:40;101827.47;;;0.46;70.75
20983;BME280;10650;51.528;6.748;2023-02-26T04:56:10;101823.94;;;0.45;70.41
20983;BME280;10650;51.528;6.748;2023-02-26T04:58:38;101835.13;;;0.41;69.98
20983;BME280;10650;51.528;6.748;2023-02-26T05:01:05;101831.63;;;0.41;70.43
20983;BME280;10650;51.528;6.748;2023-02-26T05:03:33;101836.19;;;0.45;69.77
20983;BME280;10650;51.528;6.748;2023-02-26T05:06:01;101847.25;;;0.38;69.88
20983;BME280;10650;51.528;6.748;2023-02-26T05:08:29;101843.00;;;0.41;69.60
20983;BME280;10650;51.528;6.748;2023-02-26T05:10:57;101851.91;;;0.43;69.81
20983;BME280;10650;51.528;6.748;2023-02-26T05:13:26;101851.91;;;0.43;69.54
20983;BME280;10650;51.528;6.748;2023-02-26T05:15:53;101854.53;;;0.43;69.50
20983;BME280;10650;51.528;6.748;2023-02-26T05:18:21;101862.56;;;0.46;68.99
20983;BME280;10650;51.528;6.748;2023-02-26T05:20:53;101864.78;;;0.39;69.17
20983;BME280;10650;51.528;6.748;2023-02-26T05:23:21;101868.41;;;0.41;69.36
20983;BME280;10650;51.528;6.748;2023-02-26T05:25:50;101869.38;;;0.43;69.33
20983;BME280;10650;51.528;6.748;2023-02-26T05:28:17;101867.59;;;0.42;69.17
20983;BME280;10650;51.528;6.748;2023-02-26T05:30:46;101874.41;;;0.38;68.99
20983;BME280;10650;51.528;6.748;2023-02-26T05:33:14;101877.63;;;0.32;68.73
20983;BME280;10650;51.528;6.748;2023-02-26T05:35:42;101876.81;;;0.33;68.92
20983;BME280;10650;51.528;6.748;2023-02-26T05:38:10;101877.34;;;0.26;69.15
20983;BME280;10650;51.528;6.748;2023-02-26T05:40:38;101878.81;;;0.21;69.16
20983;BME280;10650;51.528;6.748;2023-02-26T05:43:06;101885.97;;;0.24;69.36
20983;BME280;10650;51.528;6.748;2023-02-26T05:45:34;101882.44;;;0.23;69.22
20983;BME280;10650;51.528;6.748;2023-02-26T05:48:03;101888.75;;;0.27;69.33
20983;BME280;10650;51.528;6.748;2023-02-26T05:50:31;101886.69;;;0.21;68.91
20983;BME280;10650;51.528;6.748;2023-02-26T05:52:59;101901.81;;;0.25;69.14
20983;BME280;10650;51.528;6.748;2023-02-26T05:55:26;101906.09;;;0.23;69.26
20983;BME280;10650;51.528;6.748;2023-02-26T05:57:54;101916.47;;;0.20;69.42
20983;BME280;10650;51.528;6.748;2023-02-26T06:00:22;101913.13;;;0.24;69.34
20983;BME280;10650;51.528;6.748;2023-02-26T06:02:50;101914.13;;;0.26;69.48
20983;BME280;10650;51.528;6.748;2023-02-26T06:05:19;101915.94;;;0.27;69.27
20983;BME280;10650;51.528;6.748;2023-02-26T06:07:47;101918.41;;;0.24;69.25
20983;BME280;10650;51.528;6.748;2023-02-26T06:10:14;101916.34;;;0.19;69.68
20983;BME280;10650;51.528;6.748;2023-02-26T06:12:42;101921.53;;;0.17;69.74
20983;BME280;10650;51.528;6.748;2023-02-26T06:15:10;101932.63;;;0.11;70.03
20983;BME280;10650;51.528;6.748;2023-02-26T06:17:38;101937.88;;;0.11;69.84
20983;BME280;10650;51.528;6.748;2023-02-26T06:20:07;101946.59;;;-0.06;69.50
20983;BME280;10650;51.528;6.748;2023-02-26T06:22:37;101947.25;;;-0.10;70.25
20983;BME280;10650;51.528;6.748;2023-02-26T06:25:05;101953.44;;;-0.10;70.30
20983;BME280;10650;51.528;6.748;2023-02-26T06:27:33;101964.59;;;-0.14;70.21
20983;BME280;10650;51.528;6.748;2023-02-26T06:30:01;101968.44;;;-0.07;70.48
20983;BME280;10650;51.528;6.748;2023-02-26T06:32:29;101964.75;;;-0.11;70.16
20983;BME280;10650;51.528;6.748;2023-02-26T06:34:57;101970.00;;;-0.11;70.00
20983;BME280;10650;51.528;6.748;2023-02-26T06:37:25;101968.91;;;-0.14;69.98
20983;BME280;10650;51.528;6.748;2023-02-26T06:39:55;101979.84;;;-0.07;69.92
20983;BME280;10650;51.528;6.748;2023-02-26T06:42:22;101987.06;;;-0.19;69.84
20983;BME280;10650;51.528;6.748;2023-02-26T06:44:53;101988.31;;;-0.12;69.83
20983;BME280;10650;51.528;6.748;2023-02-26T06:47:22;101999.22;;;-0.05;69.67
20983;BME280;10650;51.528;6.748;2023-02-26T06:49:50;102003.91;;;0.01;69.32
20983;BME280;10650;51.528;6.748;2023-02-26T06:52:18;102008.69;;;-0.08;69.32
20983;BME280;10650;51.528;6.748;2023-02-26T06:54:45;102003.34;;;-0.10;69.31
20983;BME280;10650;51.528;6.748;2023-02-26T06:57:15;102011.97;;;-0.12;69.77
20983;BME280;10650;51.528;6.748;2023-02-26T06:59:43;102010.81;;;-0.01;69.43
20983;BME280;10650;51.528;6.748;2023-02-26T07:02:14;102023.78;;;-0.04;69.24
20983;BME280;10650;51.528;6.748;2023-02-26T07:04:42;102022.72;;;-0.08;69.61
20983;BME280;10650;51.528;6.748;2023-02-26T07:07:10;102028.97;;;-0.06;69.48
20983;BME280;10650;51.528;6.748;2023-02-26T07:09:38;102030.09;;;-0.01;69.11
20983;BME280;10650;51.528;6.748;2023-02-26T07:12:06;102041.63;;;0.02;69.44
20983;BME280;10650;51.528;6.748;2023-02-26T07:14:36;102031.59;;;-0.06;69.22
20983;BME280;10650;51.528;6.748;2023-02-26T07:17:04;102045.31;;;-0.11;69.43
20983;BME280;10650;51.528;6.748;2023-02-26T07:19:32;102044.53;;;-0.09;69.39
20983;BME280;10650;51.528;6.748;2023-02-26T07:22:00;102045.72;;;-0.04;69.42
20983;BME280;10650;51.528;6.748;2023-02-26T07:24:28;102050.66;;;0.07;69.42
20983;BME280;10650;51.528;6.748;2023-02-26T07:26:56;102054.00;;;0.04;69.05
20983;BME280;10650;51.528;6.748;2023-02-26T07:29:24;102049.59;;;0.03;68.81
20983;BME280;10650;51.528;6.748;2023-02-26T07:31:53;102064.34;;;0.01;68.85
20983;BME280;10650;51.528;6.748;2023-02-26T07:34:21;102057.22;;;0.15;68.83
20983;BME280;10650;51.528;6.748;2023-02-26T07:36:49;102055.00;;;0.23;68.69
20983;BME280;10650;51.528;6.748;2023-02-26T07:39:17;102064.47;;;0.19;68.82
20983;BME280;10650;51.528;6.748;2023-02-26T07:41:45;102066.69;;;0.28;68.58
20983;BME280;10650;51.528;6.748;2023-02-26T07:44:12;102067.75;;;0.31;68.32
20983;BME280;10650;51.528;6.748;2023-02-26T07:46:40;102073.50;;;0.41;68.30
20983;BME280;10650;51.528;6.748;2023-02-26T07:49:10;102072.44;;;0.37;68.17
20983;BME280;10650;51.528;6.748;2023-02-26T07:51:38;102079.03;;;0.29;68.21
20983;BME280;10650;51.528;6.748;2023-02-26T07:54:06;102082.72;;;0.49;68.38
20983;BME280;10650;51.528;6.748;2023-02-26T07:56:34;102088.13;;;0.36;68.05
20983;BME280;10650;51.528;6.748;2023-02-26T07:59:02;102096.16;;;0.39;68.17
20983;BME280;10650;51.528;6.748;2023-02-26T08:01:30;102107.84;;;0.44;68.49
20983;BME280;10650;51.528;6.748;2023-02-26T08:03:58;102100.72;;;0.58;68.45
20983;BME280;10650;51.528;6.748;2023-02-26T08:06:31;102096.94;;;0.69;67.92
20983;BME280;10650;51.528;6.748;2023-02-26T08:09:15;102088.19;;;0.70;67.62
20983;BME280;10650;51.528;6.748;2023-02-26T08:12:15;102092.88;;;0.76;67.38
20983;BME280;10650;51.528;6.748;2023-02-26T08:15:22;102094.34;;;0.87;67.22
20983;BME280;10650;51.528;6.748;2023-02-26T08:18:00;102100.13;;;0.96;67.18
20983;BME280;10650;51.528;6.748;2023-02-26T08:23:04;102111.53;;;0.97;66.63
20983;BME280;10650;51.528;6.748;2023-02-26T08:25:32;102116.56;;;0.92;66.40
20983;BME280;10650;51.528;6.748;2023-02-26T08:28:01;102124.47;;;0.92;66.20
20983;BME280;10650;51.528;6.748;2023-02-26T08:30:29;102125.19;;;1.06;66.36
20983;BME280;10650;51.528;6.748;2023-02-26T08:32:58;102124.50;;;1.10;66.45
20983;BME280;10650;51.528;6.748;2023-02-26T08:35:26;102128.72;;;1.07;65.91
20983;BME280;10650;51.528;6.748;2023-02-26T08:37:54;102130.31;;;1.21;65.40
20983;BME280;10650;51.528;6.748;2023-02-26T08:40:24;102145.91;;;1.34;65.83
20983;BME280;10650;51.528;6.748;2023-02-26T08:42:52;102141.97;;;1.43;65.76
20983;BME280;10650;51.528;6.748;2023-02-26T08:45:20;102147.38;;;1.46;65.22
20983;BME280;10650;51.528;6.748;2023-02-26T08:47:48;102156.81;;;1.59;65.05
20983;BME280;10650;51.528;6.748;2023-02-26T08:50:23;102155.53;;;1.68;64.42
20983;BME280;10650;51.528;6.748;2023-02-26T08:52:51;102145.16;;;1.71;64.04
20983;BME280;10650;51.528;6.748;2023-02-26T08:55:19;102153.88;;;1.70;63.18
20983;BME280;10650;51.528;6.748;2023-02-26T08:57:48;102165.47;;;1.74;63.41
20983;BME280;10650;51.528;6.748;2023-02-26T09:00:18;102178.00;;;1.78;62.78
20983;BME280;10650;51.528;6.748;2023-02-26T09:02:47;102162.91;;;1.76;62.93
20983;BME280;10650;51.528;6.748;2023-02-26T09:05:20;102165.47;;;1.74;62.42
20983;BME280;10650;51.528;6.748;2023-02-26T09:07:50;102175.44;;;1.80;62.32
20983;BME280;10650;51.528;6.748;2023-02-26T09:10:19;102188.97;;;1.87;61.85
20983;BME280;10650;51.528;6.748;2023-02-26T09:12:51;102172.88;;;1.99;62.37
20983;BME280;10650;51.528;6.748;2023-02-26T09:15:52;102192.69;;;1.91;60.49
20983;BME280;10650;51.528;6.748;2023-02-26T09:18:50;102192.53;;;1.88;60.93
20983;BME280;10650;51.528;6.748;2023-02-26T09:21:56;102194.94;;;2.01;60.65
20983;BME280;10650;51.528;6.748;2023-02-26T09:25:02;102209.63;;;2.14;60.39
20983;BME280;10650;51.528;6.748;2023-02-26T09:27:41;102208.22;;;2.21;59.56
20983;BME280;10650;51.528;6.748;2023-02-26T09:30:26;102194.41;;;2.27;59.45
20983;BME280;10650;51.528;6.748;2023-02-26T09:33:14;102206.00;;;2.30;59.17
20983;BME280;10650;51.528;6.748;2023-02-26T09:36:00;102209.63;;;2.32;58.96
20983;BME280;10650;51.528;6.748;2023-02-26T09:38:51;102218.78;;;2.40;58.86
20983;BME280;10650;51.528;6.748;2023-02-26T09:41:41;102212.47;;;2.37;59.30
20983;BME280;10650;51.528;6.748;2023-02-26T09:44:41;102225.81;;;2.58;59.19
20983;BME280;10650;51.528;6.748;2023-02-26T09:47:53;102227.19;;;2.69;59.00
20983;BME280;10650;51.528;6.748;2023-02-26T09:50:31;102233.66;;;2.76;58.34
20983;BME280;10650;51.528;6.748;2023-02-26T09:53:16;102230.47;;;2.83;58.00
20983;BME280;10650;51.528;6.748;2023-02-26T09:56:03;102235.53;;;2.97;57.78
20983;BME280;10650;51.528;6.748;2023-02-26T09:58:49;102228.81;;;3.05;57.21
20983;BME280;10650;51.528;6.748;2023-02-26T10:01:37;102218.97;;;3.20;57.63
20983;BME280;10650;51.528;6.748;2023-02-26T10:04:48;102233.75;;;3.36;57.16
20983;BME280;10650;51.528;6.748;2023-02-26T10:07:32;102235.50;;;3.36;55.65
20983;BME280;10650;51.528;6.748;2023-02-26T10:10:15;102241.63;;;3.35;54.46
20983;BME280;10650;51.528;6.748;2023-02-26T10:13:01;102244.94;;;3.31;54.17
20983;BME280;10650;51.528;6.748;2023-02-26T10:15:41;102248.03;;;3.40;54.27
20983;BME280;10650;51.528;6.748;2023-02-26T10:18:20;102244.31;;;3.56;53.08
20983;BME280;10650;51.528;6.748;2023-02-26T10:20:58;102252.31;;;3.57;52.89
20983;BME280;10650;51.528;6.748;2023-02-26T10:23:37;102244.31;;;3.56;52.14
20983;BME280;10650;51.528;6.748;2023-02-26T10:26:21;102260.09;;;3.54;51.54
20983;BME280;10650;51.528;6.748;2023-02-26T10:29:14;102254.19;;;3.60;51.07
20983;BME280;10650;51.528;6.748;2023-02-26T10:31:58;102255.06;;;3.60;50.93
20983;BME280;10650;51.528;6.748;2023-02-26T10:34:38;102248.41;;;3.69;50.81
20983;BME280;10650;51.528;6.748;2023-02-26T10:37:20;102240.91;;;3.58;50.55
20983;BME280;10650;51.528;6.748;2023-02-26T10:40:02;102256.19;;;3.66;50.58
20983;BME280;10650;51.528;6.748;2023-02-26T10:42:38;102258.41;;;3.76;50.47
20983;BME280;10650;51.528;6.748;2023-02-26T10:45:34;102264.94;;;3.84;49.82
20983;BME280;10650;51.528;6.748;2023-02-26T10:48:13;102265.94;;;3.88;49.79
20983;BME280;10650;51.528;6.748;2023-02-26T10:50:48;102263.91;;;4.02;50.33
20983;BME280;10650;51.528;6.748;2023-02-26T10:53:21;102272.53;;;3.97;48.95
20983;BME280;10650;51.528;6.748;2023-02-26T10:55:58;102273.94;;;3.89;48.32
20983;BME280;10650;51.528;6.748;2023-02-26T10:58:46;102277.47;;;3.69;47.83
20983;BME280;10650;51.528;6.748;2023-02-26T11:04:33;102278.84;;;3.80;47.38
20983;BME280;10650;51.528;6.748;2023-02-26T11:07:04;102278.22;;;3.86;48.25
20983;BME280;10650;51.528;6.748;2023-02-26T11:09:53;102278.78;;;3.99;48.35
20983;BME280;10650;51.528;6.748;2023-02-26T11:12:48;102281.72;;;4.06;47.80
20983;BME280;10650;51.528;6.748;2023-02-26T11:15:32;102283.25;;;4.01;46.60
20983;BME280;10650;51.528;6.748;2023-02-26T11:18:02;102277.94;;;4.01;47.22
20983;BME280;10650;51.528;6.748;2023-02-26T11:20:40;102287.00;;;4.06;48.10
20983;BME280;10650;51.528;6.748;2023-02-26T11:23:27;102286.78;;;4.22;47.72
20983;BME280;10650;51.528;6.748;2023-02-26T11:26:13;102285.97;;;4.23;47.69
20983;BME280;10650;51.528;6.748;2023-02-26T11:28:47;102282.78;;;4.32;47.52
20983;BME280;10650;51.528;6.748;2023-02-26T11:31:49;102285.84;;;4.20;47.09
20983;BME280;10650;51.528;6.748;2023-02-26T11:34:32;102292.06;;;4.43;47.24
20983;BME280;10650;51.528;6.748;2023-02-26T11:37:17;102286.06;;;4.47;46.53
20983;BME280;10650;51.528;6.748;2023-02-26T11:40:18;102293.03;;;4.45;46.56
20983;BME280;10650;51.528;6.748;2023-02-26T11:47:02;102294.78;;;4.45;45.76
20983;BME280;10650;51.528;6.748;2023-02-26T11:49:33;102293.69;;;4.40;44.73
20983;BME280;10650;51.528;6.748;2023-02-26T11:52:20;102290.31;;;4.44;42.59
20983;BME280;10650;51.528;6.748;2023-02-26T11:55:19;102287.19;;;4.54;43.30
20983;BME280;10650;51.528;6.748;2023-02-26T11:57:50;102274.78;;;4.52;43.54
20983;BME280;10650;51.528;6.748;2023-02-26T12:00:23;102275.97;;;4.60;43.83
20983;BME280;10650;51.528;6.748;2023-02-26T12:02:59;102270.06;;;4.67;43.94
20983;BME280;10650;51.528;6.748;2023-02-26T12:05:28;102282.78;;;4.76;44.20
20983;BME280;10650;51.528;6.748;2023-02-26T12:07:56;102275.78;;;4.78;43.15
20983;BME280;10650;51.528;6.748;2023-02-26T12:10:37;102283.13;;;4.85;43.82
20983;BME280;10650;51.528;6.748;2023-02-26T12:13:10;102268.78;;;5.02;43.62
20983;BME280;10650;51.528;6.748;2023-02-26T12:15:53;102267.97;;;5.03;43.84
20983;BME280;10650;51.528;6.748;2023-02-26T12:18:39;102260.63;;;4.96;41.75
20983;BME280;10650;51.528;6.748;2023-02-26T12:21:31;102267.25;;;5.08;42.19
20983;BME280;10650;51.528;6.748;2023-02-26T12:24:21;102270.22;;;5.17;43.40
20983;BME280;10650;51.528;6.748;2023-02-26T12:26:58;102286.31;;;5.22;43.53
20983;BME280;10650;51.528;6.748;2023-02-26T12:29:41;102277.16;;;5.13;43.00
20983;BME280;10650;51.528;6.748;2023-02-26T12:32:23;102277.53;;;5.00;42.51
20983;BME280;10650;51.528;6.748;2023-02-26T12:35:12;102284.91;;;4.84;42.19
20983;BME280;10650;51.528;6.748;2023-02-26T12:38:08;102295.38;;;4.81;43.15
20983;BME280;10650;51.528;6.748;2023-02-26T12:41:09;102275.31;;;4.65;42.44
20983;BME280;10650;51.528;6.748;2023-02-26T12:43:49;102278.81;;;4.64;41.91
20983;BME280;10650;51.528;6.748;2023-02-26T12:47:03;102281.81;;;4.74;42.68
20983;BME280;10650;51.528;6.748;2023-02-26T12:49:50;102281.97;;;4.78;42.64
20983;BME280;10650;51.528;6.748;2023-02-26T12:52:41;102287.81;;;4.70;43.02
20983;BME280;10650;51.528;6.748;2023-02-26T12:55:20;102278.78;;;4.87;43.51
20983;BME280;10650;51.528;6.748;2023-02-26T12:58:14;102266.41;;;4.86;43.46
20983;BME280;10650;51.528;6.748;2023-02-26T13:01:03;102269.72;;;5.03;43.56
20983;BME280;10650;51.528;6.748;2023-02-26T13:06:47;102280.44;;;5.06;43.21
20983;BME280;10650;51.528;6.748;2023-02-26T13:09:29;102274.03;;;5.01;42.92
20983;BME280;10650;51.528;6.748;2023-02-26T13:12:06;102274.56;;;5.15;42.28
20983;BME280;10650;51.528;6.748;2023-02-26T13:14:48;102276.84;;;5.06;43.04
20983;BME280;10650;51.528;6.748;2023-02-26T13:17:25;102283.69;;;4.99;42.54
20983;BME280;10650;51.528;6.748;2023-02-26T13:19:55;102277.19;;;4.91;43.01
20983;BME280;10650;51.528;6.748;2023-02-26T13:22:28;102275.69;;;4.97;43.49
20983;BME280;10650;51.528;6.748;2023-02-26T13:25:01;102275.91;;;5.03;43.48
20983;BME280;10650;51.528;6.748;2023-02-26T13:27:33;102287.94;;;5.18;42.59
20983;BME280;10650;51.528;6.748;2023-02-26T13:30:18;102283.66;;;5.22;43.08
20983;BME280;10650;51.528;6.748;2023-02-26T13:32:48;102278.38;;;5.22;42.50
20983;BME280;10650;51.528;6.748;2023-02-26T13:35:20;102274.19;;;5.06;42.70
20983;BME280;10650;51.528;6.748;2023-02-26T13:37:52;102268.50;;;4.95;43.02
20983;BME280;10650;51.528;6.748;2023-02-26T13:40:44;102268.34;;;4.90;43.04
20983;BME280;10650;51.528;6.748;2023-02-26T13:43:27;102273.59;;;4.89;43.14
20983;BME280;10650;51.528;6.748;2023-02-26T13:46:09;102273.66;;;4.90;43.08
20983;BME280;10650;51.528;6.748;2023-02-26T13:48:42;102268.41;;;4.92;42.43
20983;BME280;10650;51.528;6.748;2023-02-26T13:51:26;102255.44;;;4.77;41.42
20983;BME280;10650;51.528;6.748;2023-02-26T13:53:58;102259.19;;;4.82;42.25
20983;BME280;10650;51.528;6.748;2023-02-26T13:57:04;102263.88;;;4.89;41.94